Grandin, North Dakota
Current Conditions -  °F | °C
As of 5:53 PM on Friday 19 Dec 2014 (Local Time) from KFAR Reporting Station
Haze Haze  
Wind Chill: 22°   Ceiling: 800
Heat Index: 32°   Visibility: 4mi
Dew Point: 28°   Wind: 14mph
Humidity: 85%   Direction: 170°S
Pressure: 30.03"   Gusts: NA
Location:  47.24°N, 97°W
Report Text: KFAR 192353Z 17012KT 4SM BR OVC008 00/M02 A3003 RMK AO2 SNE2254 CIG 007V012 SLP184 P0000 60000 T00001022 10000 21017 53004
Loading
Personal Weather Stations






























Interactive Weather Map New forecast layout! Learn more

10-Day Weather Forecast

Advertisements
Track Severe Weather on mobile